Time;durP1;ratioP1;P1;durP2;ratioP2;P2;SDS_P1;SDS_P2;PMS_P1;PMS_P2;Temp;Humidity;BMP_temperature;BMP_pressure;BME280_temperature;BME280_humidity;BME280_pressure;Samples;Min_cycle;Max_cycle;Signal;HPM_P1;HPM_P2
2023/08/04 00:00:17;;;;;;;3.03;1.17;;;;;;;15.77;100.00;97981.00;4109137;28;20650;-46
2023/08/04 00:02:20;;;;;;;2.28;2.08;;;;;;;15.76;100.00;97987.63;4128017;28;20227;-48
2023/08/04 00:04:22;;;;;;;1.17;0.90;;;;;;;15.79;100.00;97989.81;4112678;28;20214;-46
2023/08/04 00:06:24;;;;;;;11.55;1.02;;;;;;;15.65;100.00;97982.53;4126471;28;20246;-47
2023/08/04 00:08:25;;;;;;;1.35;0.68;;;;;;;15.71;100.00;97978.59;4122991;28;20218;-46
2023/08/04 00:10:27;;;;;;;1.23;1.10;;;;;;;15.77;100.00;97981.00;4126945;28;20217;-47
2023/08/04 00:12:30;;;;;;;1.55;0.95;;;;;;;15.71;100.00;97976.66;4126340;28;20238;-46
2023/08/04 00:14:31;;;;;;;1.83;1.20;;;;;;;15.71;100.00;97975.84;4119618;28;20583;-48
2023/08/04 00:16:33;;;;;;;1.05;0.90;;;;;;;15.81;100.00;97982.03;4135150;28;20615;-46
2023/08/04 00:18:35;;;;;;;1.35;1.05;;;;;;;15.57;100.00;97969.41;4126994;28;20256;-46
2023/08/04 00:20:37;;;;;;;2.55;1.08;;;;;;;15.67;100.00;97975.63;4124749;28;20213;-46
2023/08/04 00:22:39;;;;;;;1.55;1.15;;;;;;;15.72;100.00;97972.81;4126211;28;20203;-46
2023/08/04 00:24:41;;;;;;;2.67;1.10;;;;;;;15.72;100.00;97977.47;4119466;28;20723;-46
2023/08/04 00:26:42;;;;;;;1.30;1.20;;;;;;;15.75;100.00;97976.91;4119155;28;20205;-48
2023/08/04 00:28:45;;;;;;;4.30;1.20;;;;;;;15.62;100.00;97983.94;4115869;28;20218;-46
2023/08/04 00:30:46;;;;;;;1.63;1.15;;;;;;;15.55;100.00;97980.72;4118711;28;20217;-46
2023/08/04 00:32:48;;;;;;;0.90;0.90;;;;;;;15.58;100.00;97982.91;4127027;28;20233;-46
2023/08/04 00:34:50;;;;;;;1.10;1.00;;;;;;;15.52;100.00;97989.59;4134513;28;20229;-46
2023/08/04 00:36:52;;;;;;;3.92;1.50;;;;;;;15.49;100.00;97994.88;4121484;28;20225;-46
2023/08/04 00:38:53;;;;;;;4.32;1.23;;;;;;;15.37;100.00;97995.28;4126864;28;20214;-48
2023/08/04 00:40:55;;;;;;;3.08;1.38;;;;;;;15.41;100.00;97987.25;4115985;28;20700;-46
2023/08/04 00:42:57;;;;;;;2.00;1.30;;;;;;;15.42;100.00;97978.69;4114829;28;20214;-47
2023/08/04 00:44:59;;;;;;;3.78;1.45;;;;;;;15.38;100.00;97983.16;4135271;28;20766;-46
2023/08/04 00:47:00;;;;;;;2.20;1.38;;;;;;;15.42;100.00;97983.41;4134092;28;20218;-46
2023/08/04 00:49:04;;;;;;;1.30;1.20;;;;;;;15.40;100.00;97982.84;4107255;28;20741;-46
2023/08/04 00:51:08;;;;;;;2.88;1.63;;;;;;;15.33;100.00;97977.69;4101358;28;20235;-48
2023/08/04 00:53:11;;;;;;;2.47;1.40;;;;;;;15.32;100.00;97981.56;4110728;28;20260;-46
2023/08/04 00:55:14;;;;;;;1.33;1.13;;;;;;;15.38;100.00;97983.16;4106573;28;20222;-46
2023/08/04 00:57:16;;;;;;;3.78;1.65;;;;;;;15.37;100.00;97981.50;4116111;28;20215;-46
2023/08/04 00:59:18;;;;;;;2.67;1.90;;;;;;;15.40;100.00;97986.44;4104380;28;20214;-46
2023/08/04 01:01:19;;;;;;;1.40;1.30;;;;;;;15.45;100.00;97982.78;4119777;28;20233;-46
2023/08/04 01:03:24;;;;;;;1.90;1.38;;;;;;;15.51;100.00;97987.94;4117740;28;20206;-46
2023/08/04 01:05:42;;;;;;;1.42;1.33;;;;;;;15.57;100.00;97995.03;4126665;28;20719;-46
2023/08/04 01:07:57;;;;;;;2.28;1.55;;;;;;;15.54;100.00;97992.88;4126810;28;20705;-47
2023/08/04 01:10:04;;;;;;;1.40;1.30;;;;;;;15.62;100.00;97989.47;4119740;28;20264;-50
2023/08/04 01:12:14;;;;;;;4.15;1.40;;;;;;;15.61;100.00;97982.31;4117892;28;20222;-46
2023/08/04 01:14:17;;;;;;;2.47;1.42;;;;;;;15.64;100.00;97981.72;4129348;28;20213;-46
2023/08/04 01:16:19;;;;;;;1.85;1.67;;;;;;;15.69;100.00;97986.38;4119463;28;20276;-47
2023/08/04 01:18:21;;;;;;;2.35;1.63;;;;;;;15.73;100.00;97985.47;4117686;28;20205;-46
2023/08/04 01:20:25;;;;;;;2.10;1.52;;;;;;;15.69;100.00;97978.88;4121040;28;20665;-46
2023/08/04 01:22:27;;;;;;;2.88;1.60;;;;;;;15.65;100.00;97977.03;4125605;28;20238;-48
2023/08/04 01:24:29;;;;;;;1.83;1.13;;;;;;;15.68;100.00;97971.75;4119120;28;20214;-46
2023/08/04 01:26:30;;;;;;;2.90;1.42;;;;;;;15.65;100.00;97972.34;4125003;28;20237;-46
2023/08/04 01:28:33;;;;;;;4.45;1.27;;;;;;;15.66;100.00;97973.97;4126517;28;20687;-46
2023/08/04 01:30:35;;;;;;;2.42;2.22;;;;;;;15.72;100.00;97974.72;4124650;28;20242;-48
2023/08/04 01:32:37;;;;;;;1.73;1.50;;;;;;;15.72;100.00;97978.31;4119900;28;20238;-46
2023/08/04 01:34:41;;;;;;;1.33;1.23;;;;;;;15.74;100.00;97981.59;4129081;28;20269;-46
2023/08/04 01:36:45;;;;;;;3.45;1.50;;;;;;;15.74;100.00;97987.09;4120254;28;20297;-47
2023/08/04 01:38:47;;;;;;;2.13;1.67;;;;;;;15.72;100.00;97983.84;4123937;28;20218;-46
2023/08/04 01:40:49;;;;;;;2.67;1.40;;;;;;;15.71;100.00;97984.94;4129055;28;20216;-46
2023/08/04 01:42:50;;;;;;;2.90;1.60;;;;;;;15.77;100.00;97985.69;4114461;28;20281;-45
2023/08/04 01:44:52;;;;;;;2.20;2.00;;;;;;;15.75;100.00;97991.50;4135549;28;20209;-47
2023/08/04 01:46:54;;;;;;;1.90;1.65;;;;;;;15.73;100.00;97988.22;4122255;28;20261;-46
2023/08/04 01:48:55;;;;;;;3.38;1.65;;;;;;;15.77;100.00;97985.69;4129419;28;20214;-46
2023/08/04 01:50:57;;;;;;;1.50;1.40;;;;;;;15.75;100.00;97983.22;4128756;28;20766;-48
2023/08/04 01:53:00;;;;;;;2.22;1.50;;;;;;;15.80;100.00;97991.44;4113810;28;20592;-46
2023/08/04 01:55:02;;;;;;;2.35;2.15;;;;;;;15.64;100.00;97981.72;4138485;28;20205;-46
2023/08/04 01:57:04;;;;;;;3.47;2.30;;;;;;;15.50;100.00;97991.00;4119810;28;20579;-46
2023/08/04 01:59:06;;;;;;;1.95;1.77;;;;;;;15.61;100.00;97992.50;4120220;28;20215;-48
2023/08/04 02:01:08;;;;;;;2.65;2.00;;;;;;;15.53;100.00;97996.75;4121440;28;20235;-46
2023/08/04 02:03:09;;;;;;;2.03;1.92;;;;;;;15.56;100.00;97990.66;4119908;28;20206;-46
2023/08/04 02:05:12;;;;;;;4.45;2.55;;;;;;;15.58;100.00;97999.47;4128077;28;20273;-46
2023/08/04 02:07:13;;;;;;;2.97;1.80;;;;;;;15.60;100.00;97991.72;4128900;28;20258;-46
2023/08/04 02:09:15;;;;;;;2.35;2.15;;;;;;;15.62;100.00;97989.47;4122086;28;20214;-48
2023/08/04 02:11:17;;;;;;;2.30;2.10;;;;;;;15.69;100.00;97989.94;4121201;28;20230;-47
2023/08/04 02:13:19;;;;;;;1.60;1.50;;;;;;;15.71;100.00;97984.94;4119416;28;20284;-47
2023/08/04 02:15:22;;;;;;;1.80;1.70;;;;;;;15.74;100.00;97998.16;4128140;28;20218;-47
2023/08/04 02:17:23;;;;;;;2.25;2.00;;;;;;;15.71;100.00;97998.72;4124072;28;20224;-46
2023/08/04 02:19:25;;;;;;;2.78;1.77;;;;;;;15.69;100.00;97997.41;4123571;28;20277;-46
2023/08/04 02:21:27;;;;;;;2.13;2.03;;;;;;;15.69;100.00;97995.44;4122424;28;20239;-46
2023/08/04 02:23:30;;;;;;;2.70;1.60;;;;;;;15.72;100.00;98000.38;4119388;28;20254;-46
2023/08/04 02:25:32;;;;;;;2.85;1.88;;;;;;;15.72;100.00;97989.34;4123228;28;20242;-47
2023/08/04 02:27:33;;;;;;;1.98;1.88;;;;;;;15.74;100.00;97987.09;4120769;28;20494;-46
2023/08/04 02:29:35;;;;;;;2.00;1.75;;;;;;;15.73;100.00;97996.50;4119805;28;20273;-45
2023/08/04 02:31:37;;;;;;;2.35;1.60;;;;;;;15.76;100.00;97995.91;4122693;28;20231;-46
2023/08/04 02:33:39;;;;;;;1.50;1.40;;;;;;;15.76;100.00;98000.63;4119720;28;20276;-46
2023/08/04 02:35:41;;;;;;;2.58;1.40;;;;;;;15.77;100.00;98005.81;4123431;28;22036;-47
2023/08/04 02:37:42;;;;;;;1.85;1.55;;;;;;;15.76;100.00;98004.19;4129633;28;20272;-47
2023/08/04 02:39:44;;;;;;;1.90;1.80;;;;;;;15.76;100.00;98006.94;4134468;28;20210;-46
2023/08/04 02:41:46;;;;;;;1.25;1.20;;;;;;;15.76;100.00;97995.09;4118857;28;20313;-47
2023/08/04 02:43:48;;;;;;;1.40;1.30;;;;;;;15.75;100.00;97999.78;4120394;28;20660;-46
2023/08/04 02:45:50;;;;;;;2.03;1.60;;;;;;;15.74;100.00;98003.66;4127033;28;20648;-47
2023/08/04 02:47:52;;;;;;;1.40;1.30;;;;;;;15.73;100.00;98002.03;4125545;28;20210;-46
2023/08/04 02:49:54;;;;;;;1.40;1.30;;;;;;;15.77;100.00;97997.53;4123213;28;20315;-47
2023/08/04 02:51:56;;;;;;;2.45;1.30;;;;;;;15.77;100.00;97996.75;4124972;28;20233;-46
2023/08/04 02:53:57;;;;;;;1.65;1.55;;;;;;;15.75;100.00;98004.50;4129391;28;20611;-47
2023/08/04 02:56:00;;;;;;;2.00;1.80;;;;;;;15.72;100.00;97994.88;4106786;28;20219;-47
2023/08/04 02:58:01;;;;;;;1.52;1.42;;;;;;;15.72;100.00;97997.63;4102696;28;20215;-46
2023/08/04 03:00:04;;;;;;;1.85;1.55;;;;;;;15.73;100.00;98001.19;4122689;28;20728;-48
2023/08/04 03:02:06;;;;;;;1.48;1.20;;;;;;;15.74;100.00;97997.31;4127131;28;20229;-46
2023/08/04 03:04:08;;;;;;;1.48;1.38;;;;;;;15.74;100.00;97998.16;4125949;28;20206;-47
2023/08/04 03:06:10;;;;;;;1.95;1.52;;;;;;;15.76;100.00;98001.41;4123785;28;20292;-47
2023/08/04 03:08:11;;;;;;;3.80;1.45;;;;;;;15.74;100.00;98006.41;4120503;28;21240;-48
2023/08/04 03:10:13;;;;;;;3.45;1.60;;;;;;;15.77;100.00;97997.53;4121006;28;20202;-46
2023/08/04 03:12:15;;;;;;;1.88;1.67;;;;;;;15.76;100.00;97997.84;4116674;28;20672;-46
2023/08/04 03:14:17;;;;;;;2.00;1.80;;;;;;;15.75;100.00;98005.31;4102626;28;20232;-48
2023/08/04 03:16:19;;;;;;;2.22;1.23;;;;;;;15.76;100.00;97995.91;4120889;28;20300;-46
2023/08/04 03:18:20;;;;;;;1.38;1.33;;;;;;;15.76;100.00;98006.94;4127620;28;20979;-49
2023/08/04 03:20:22;;;;;;;1.58;1.48;;;;;;;15.77;100.00;98002.25;4132425;28;20224;-49
2023/08/04 03:22:24;;;;;;;1.50;1.40;;;;;;;15.77;100.00;98008.56;4124281;28;20248;-46
2023/08/04 03:24:26;;;;;;;2.00;1.80;;;;;;;15.78;100.00;97998.38;4128089;28;20214;-47
2023/08/04 03:26:27;;;;;;;1.70;1.60;;;;;;;15.76;100.00;98001.41;4129419;28;20206;-46
2023/08/04 03:28:29;;;;;;;2.30;1.83;;;;;;;15.81;100.00;98004.13;4123135;28;21008;-49
2023/08/04 03:30:31;;;;;;;2.70;2.05;;;;;;;15.80;100.00;98007.16;4108586;28;20733;-48
2023/08/04 03:32:33;;;;;;;2.13;1.90;;;;;;;15.72;100.00;98005.91;4121355;28;20312;-46
2023/08/04 03:34:35;;;;;;;1.50;1.40;;;;;;;15.70;100.00;98013.63;4121442;28;20238;-47
2023/08/04 03:36:37;;;;;;;2.08;1.80;;;;;;;15.72;100.00;98011.44;4121586;28;20214;-46
2023/08/04 03:38:39;;;;;;;2.10;1.80;;;;;;;15.74;100.00;98014.69;4121355;28;20210;-47
2023/08/04 03:40:40;;;;;;;1.98;1.70;;;;;;;15.76;100.00;98009.69;4125111;28;20202;-46
2023/08/04 03:42:43;;;;;;;3.67;1.83;;;;;;;15.80;100.00;98018.19;4122060;28;20216;-46
2023/08/04 03:44:44;;;;;;;2.25;1.60;;;;;;;15.78;100.00;98018.53;4128787;28;20212;-46
2023/08/04 03:46:46;;;;;;;4.35;1.88;;;;;;;15.80;100.00;98021.78;4136690;28;20257;-46
2023/08/04 03:48:48;;;;;;;2.88;1.65;;;;;;;15.82;100.00;98016.78;4119725;28;20224;-46
2023/08/04 03:50:50;;;;;;;3.33;3.13;;;;;;;15.80;100.00;98018.19;4121678;28;20205;-46
2023/08/04 03:52:52;;;;;;;2.20;2.00;;;;;;;15.83;100.00;98017.63;4127939;28;20261;-47
2023/08/04 03:54:54;;;;;;;3.08;2.35;;;;;;;15.84;100.00;98014.56;4119925;28;20354;-46
2023/08/04 03:56:55;;;;;;;4.57;2.20;;;;;;;15.80;100.00;98019.03;4125449;28;20214;-46
2023/08/04 03:58:57;;;;;;;2.95;2.45;;;;;;;15.84;100.00;98025.59;4106295;28;20287;-46
2023/08/04 04:00:59;;;;;;;2.53;2.25;;;;;;;15.83;100.00;98023.94;4123318;28;20775;-46
2023/08/04 04:03:00;;;;;;;2.25;2.05;;;;;;;15.84;100.00;98033.06;4128125;28;20229;-48
2023/08/04 04:05:02;;;;;;;2.80;2.60;;;;;;;15.83;100.00;98026.72;4127759;28;20212;-46
2023/08/04 04:07:04;;;;;;;2.63;2.30;;;;;;;15.80;100.00;98035.59;4125480;28;20244;-46
2023/08/04 04:09:06;;;;;;;2.63;2.42;;;;;;;15.80;100.00;98041.13;4132881;28;20218;-47
2023/08/04 04:11:08;;;;;;;2.25;2.03;;;;;;;15.82;100.00;98038.06;4110082;28;21120;-47
2023/08/04 04:13:10;;;;;;;2.08;1.98;;;;;;;15.80;100.00;98035.59;4117485;28;20242;-46
2023/08/04 04:15:12;;;;;;;4.18;1.92;;;;;;;15.87;100.00;98041.56;4125722;28;20260;-46
2023/08/04 04:17:13;;;;;;;2.70;1.60;;;;;;;15.82;100.00;98029.78;4127866;28;20260;-47
2023/08/04 04:19:15;;;;;;;3.90;2.15;;;;;;;15.78;100.00;98034.25;4120221;28;20233;-49
2023/08/04 04:21:17;;;;;;;1.10;1.00;;;;;;;15.78;100.00;98032.31;4121082;28;20225;-48
2023/08/04 04:23:19;;;;;;;6.40;1.30;;;;;;;15.85;100.00;98042.97;4122786;28;20218;-46
2023/08/04 04:25:20;;;;;;;1.58;1.23;;;;;;;15.80;100.00;98040.28;4117587;28;20229;-46
2023/08/04 04:27:22;;;;;;;2.80;1.20;;;;;;;15.80;100.00;98034.75;4126864;28;20221;-46
2023/08/04 04:29:24;;;;;;;2.65;1.33;;;;;;;15.78;100.00;98037.84;4116445;28;20210;-48
2023/08/04 04:31:26;;;;;;;4.00;1.50;;;;;;;15.81;100.00;98048.28;4105042;28;20632;-48
2023/08/04 04:33:27;;;;;;;1.08;1.08;;;;;;;15.85;100.00;98049.34;4133876;28;20780;-48
2023/08/04 04:35:29;;;;;;;2.67;1.20;;;;;;;15.79;100.00;98052.44;4126456;28;20210;-46
2023/08/04 04:37:31;;;;;;;1.20;1.10;;;;;;;15.81;100.00;98050.19;4115780;28;20210;-46
2023/08/04 04:39:33;;;;;;;3.47;1.23;;;;;;;15.74;100.00;98053.31;4120776;28;20210;-46
2023/08/04 04:41:35;;;;;;;1.10;1.10;;;;;;;15.74;100.00;98058.84;4126192;28;20281;-46
2023/08/04 04:43:39;;;;;;;11.20;1.40;;;;;;;15.74;100.00;98050.56;4117331;28;20202;-47
2023/08/04 04:45:50;;;;;;;2.58;1.60;;;;;;;15.76;100.00;98056.59;4117058;28;20662;-46
2023/08/04 04:47:52;;;;;;;2.55;2.35;;;;;;;15.76;100.00;98062.13;4137076;28;20629;-48
2023/08/04 04:49:54;;;;;;;4.30;2.05;;;;;;;15.77;100.00;98057.44;4102395;28;20207;-46
2023/08/04 04:51:56;;;;;;;2.38;2.17;;;;;;;15.72;100.00;98060.25;4126105;28;20300;-47
2023/08/04 04:53:57;;;;;;;3.13;2.90;;;;;;;15.62;100.00;98061.19;4127943;28;20226;-47
2023/08/04 04:55:59;;;;;;;3.28;2.90;;;;;;;15.60;100.00;98063.44;4127358;28;20691;-47
2023/08/04 04:58:01;;;;;;;4.15;3.85;;;;;;;15.57;100.00;98064.00;4119528;28;20206;-47
2023/08/04 05:00:05;;;;;;;3.58;3.28;;;;;;;15.57;100.00;98069.50;4120936;28;20312;-47
2023/08/04 05:02:06;;;;;;;4.65;4.28;;;;;;;15.56;100.00;98067.88;4125642;28;20221;-48
2023/08/04 05:04:09;;;;;;;4.00;3.70;;;;;;;15.53;100.00;98062.94;4118962;28;20209;-47
2023/08/04 05:06:11;;;;;;;4.97;4.63;;;;;;;15.41;100.00;98062.53;4121087;28;20293;-47
2023/08/04 05:08:13;;;;;;;4.57;4.05;;;;;;;15.45;100.00;98074.63;4131283;28;20210;-47
2023/08/04 05:10:14;;;;;;;5.28;4.55;;;;;;;15.47;100.00;98075.16;4131720;28;20629;-47
2023/08/04 05:12:16;;;;;;;5.55;4.75;;;;;;;15.52;100.00;98071.50;4132246;28;20228;-47
2023/08/04 05:14:18;;;;;;;7.20;5.05;;;;;;;15.50;100.00;98074.56;4127624;28;20581;-46
2023/08/04 05:16:20;;;;;;;5.45;4.95;;;;;;;15.49;100.00;98075.66;4121492;28;20787;-48
2023/08/04 05:18:21;;;;;;;4.80;4.40;;;;;;;15.43;100.00;98079.59;4138179;28;20212;-50
2023/08/04 05:20:23;;;;;;;5.10;4.60;;;;;;;15.48;100.00;98075.94;4125230;28;20681;-47
2023/08/04 05:22:25;;;;;;;6.70;6.30;;;;;;;15.54;100.00;98081.13;4132184;28;20280;-47
2023/08/04 05:24:26;;;;;;;8.73;5.78;;;;;;;15.57;100.00;98079.72;4133080;28;20206;-47
2023/08/04 05:26:28;;;;;;;6.20;5.78;;;;;;;15.50;100.00;98079.25;4131009;28;20264;-47
2023/08/04 05:28:32;;;;;;;6.70;5.65;;;;;;;15.48;100.00;98079.53;4125151;28;20752;-46
2023/08/04 05:30:34;;;;;;;6.30;5.70;;;;;;;15.51;100.00;98081.72;4110478;28;20249;-48
2023/08/04 05:32:36;;;;;;;5.70;5.20;;;;;;;15.50;100.00;98082.81;4131583;28;20237;-47
2023/08/04 05:34:38;;;;;;;6.25;5.75;;;;;;;15.50;100.00;98088.34;4124121;28;20236;-46
2023/08/04 05:36:40;;;;;;;5.57;5.18;;;;;;;15.51;100.00;98095.50;4122798;28;20250;-47
2023/08/04 05:38:44;;;;;;;5.18;4.78;;;;;;;15.48;100.00;98093.34;4127456;28;20210;-46
2023/08/04 05:40:47;;;;;;;4.35;4.03;;;;;;;15.42;100.00;98100.00;4127319;28;20252;-47
2023/08/04 05:42:51;;;;;;;10.63;3.78;;;;;;;15.37;100.00;98100.06;4132677;28;20656;-46
2023/08/04 05:44:52;;;;;;;4.35;3.65;;;;;;;15.21;100.00;98098.53;4126859;28;20206;-46
2023/08/04 05:46:54;;;;;;;4.03;3.63;;;;;;;15.30;100.00;98107.00;4125753;28;20208;-46
2023/08/04 05:48:56;;;;;;;5.53;5.03;;;;;;;15.23;100.00;98107.34;4129843;28;20218;-47
2023/08/04 05:50:57;;;;;;;3.90;3.60;;;;;;;15.27;100.00;98102.91;4132579;28;20807;-46
2023/08/04 05:52:59;;;;;;;4.10;3.80;;;;;;;15.29;100.00;98117.19;4123991;28;20206;-48
2023/08/04 05:55:01;;;;;;;4.13;3.83;;;;;;;15.36;100.00;98109.44;4132282;28;20284;-47
2023/08/04 05:57:03;;;;;;;4.18;3.78;;;;;;;15.45;100.00;98112.41;4137697;28;20210;-47
2023/08/04 05:59:05;;;;;;;3.85;3.55;;;;;;;15.39;100.00;98116.31;4132417;28;20210;-48
2023/08/04 06:01:07;;;;;;;4.57;3.78;;;;;;;15.35;100.00;98118.84;4109951;28;20242;-47
2023/08/04 06:03:09;;;;;;;3.22;2.92;;;;;;;15.41;100.00;98114.91;4109849;28;20219;-47
2023/08/04 06:05:11;;;;;;;2.97;2.78;;;;;;;15.45;100.00;98116.00;4123208;28;20248;-46
2023/08/04 06:07:13;;;;;;;3.95;3.22;;;;;;;15.48;100.00;98112.63;4125120;28;20724;-47
2023/08/04 06:09:15;;;;;;;4.30;3.95;;;;;;;15.48;100.00;98114.56;4127171;28;20829;-47
2023/08/04 06:11:17;;;;;;;3.83;3.47;;;;;;;15.37;100.00;98119.34;4129672;28;20680;-49
2023/08/04 06:13:19;;;;;;;3.75;3.45;;;;;;;15.49;100.00;98122.56;4132867;28;20687;-47
2023/08/04 06:15:21;;;;;;;4.13;3.83;;;;;;;15.50;100.00;98118.69;4132199;28;20229;-47
2023/08/04 06:17:23;;;;;;;3.22;3.00;;;;;;;15.49;100.00;98121.75;4135492;28;20265;-48
2023/08/04 06:19:24;;;;;;;3.20;3.00;;;;;;;15.46;100.00;98123.16;4129904;28;20202;-48
2023/08/04 06:21:29;;;;;;;3.58;3.28;;;;;;;15.40;100.00;98132.59;4113883;28;20235;-46
2023/08/04 06:23:31;;;;;;;3.42;2.60;;;;;;;15.33;100.00;98123.81;4112511;28;20218;-48
2023/08/04 06:25:32;;;;;;;2.70;2.50;;;;;;;15.36;100.00;98128.75;4127030;28;20219;-46
2023/08/04 06:27:34;;;;;;;3.63;3.30;;;;;;;15.48;100.00;98131.09;4121633;28;20273;-47
2023/08/04 06:29:36;;;;;;;3.75;2.15;;;;;;;15.48;100.00;98131.94;4118120;28;20735;-47
2023/08/04 06:31:37;;;;;;;3.35;2.55;;;;;;;15.45;100.00;98138.06;4125738;28;20722;-46
2023/08/04 06:33:39;;;;;;;3.55;3.25;;;;;;;15.50;100.00;98140.75;4125806;28;20280;-48
2023/08/04 06:35:41;;;;;;;6.22;2.53;;;;;;;15.49;100.00;98146.56;4124255;28;20215;-46
2023/08/04 06:37:43;;;;;;;2.92;2.25;;;;;;;15.56;100.00;98145.09;4122899;28;20214;-46
2023/08/04 06:39:45;;;;;;;2.58;1.88;;;;;;;15.53;100.00;98147.63;4129343;28;20210;-46
2023/08/04 06:41:46;;;;;;;2.38;2.17;;;;;;;15.60;100.00;98146.16;4140221;28;20229;-46
2023/08/04 06:43:48;;;;;;;2.70;2.50;;;;;;;15.70;100.00;98157.09;4125607;28;20210;-46
2023/08/04 06:45:50;;;;;;;2.75;1.85;;;;;;;15.66;100.00;98152.44;4121191;28;20202;-47
2023/08/04 06:47:52;;;;;;;2.65;2.45;;;;;;;15.51;100.00;98158.94;4121037;28;20252;-46
2023/08/04 06:49:54;;;;;;;4.00;2.25;;;;;;;15.64;100.00;98161.00;4122367;28;20281;-46
2023/08/04 06:51:55;;;;;;;2.85;1.90;;;;;;;15.51;100.00;98172.72;4128177;28;20237;-47
2023/08/04 06:53:57;;;;;;;5.72;2.67;;;;;;;15.60;100.00;98168.25;4108573;28;20222;-46
2023/08/04 06:55:59;;;;;;;2.78;2.15;;;;;;;15.62;100.00;98174.28;4137515;28;20242;-46
2023/08/04 06:58:01;;;;;;;3.15;2.85;;;;;;;15.59;100.00;98172.13;4136926;28;20217;-46
2023/08/04 07:00:04;;;;;;;2.92;2.55;;;;;;;15.49;100.00;98176.91;4121390;28;20236;-48
2023/08/04 07:02:06;;;;;;;3.40;2.65;;;;;;;15.49;100.00;98174.94;4120902;28;20317;-47
2023/08/04 07:04:07;;;;;;;5.18;2.35;;;;;;;15.54;100.00;98174.91;4128892;28;20218;-46
2023/08/04 07:06:12;;;;;;;3.90;2.55;;;;;;;15.60;100.00;98179.28;4122501;28;20202;-46
2023/08/04 07:08:13;;;;;;;2.75;2.47;;;;;;;15.61;100.00;98180.91;4127997;28;20274;-48
2023/08/04 07:10:15;;;;;;;4.75;2.63;;;;;;;15.60;100.00;98179.28;4120185;28;20198;-47
2023/08/04 07:12:17;;;;;;;3.47;2.58;;;;;;;15.57;100.00;98185.34;4119585;28;20812;-48
2023/08/04 07:14:19;;;;;;;7.38;3.00;;;;;;;15.48;100.00;98184.34;4123902;28;20305;-46
2023/08/04 07:16:21;;;;;;;2.20;2.10;;;;;;;15.57;100.00;98185.34;4137225;28;20281;-46
2023/08/04 07:18:23;;;;;;;2.35;2.05;;;;;;;15.54;100.00;98191.47;4124705;28;20931;-48
2023/08/04 07:20:25;;;;;;;5.30;4.65;;;;;;;15.53;100.00;98188.97;4127145;28;20308;-46
2023/08/04 07:22:27;;;;;;;3.83;3.53;;;;;;;15.57;100.00;98196.38;4122808;28;20584;-48
2023/08/04 07:24:30;;;;;;;4.78;3.50;;;;;;;15.61;100.00;98197.47;4129334;28;20205;-47
2023/08/04 07:26:34;;;;;;;6.22;3.25;;;;;;;15.50;100.00;98197.84;4119991;28;20249;-47
2023/08/04 07:28:37;;;;;;;3.30;2.92;;;;;;;15.57;100.00;98201.91;4118664;28;20699;-49
2023/08/04 07:30:39;;;;;;;4.65;3.33;;;;;;;15.63;100.00;98195.22;4116751;28;20211;-47
2023/08/04 07:32:41;;;;;;;3.78;3.10;;;;;;;15.61;100.00;98202.97;4121022;28;20295;-46
2023/08/04 07:34:46;;;;;;;3.75;3.45;;;;;;;15.68;100.00;98197.94;4125944;28;20218;-50
2023/08/04 07:36:47;;;;;;;4.78;3.80;;;;;;;15.67;100.00;98207.34;4121252;28;20221;-46
2023/08/04 07:38:49;;;;;;;5.10;4.60;;;;;;;15.71;100.00;98208.38;4128524;28;20728;-47
2023/08/04 07:40:51;;;;;;;5.45;4.15;;;;;;;15.80;100.00;98203.06;4121882;28;20211;-46
2023/08/04 07:42:52;;;;;;;3.50;3.25;;;;;;;15.77;100.00;98201.72;4121317;28;20214;-47
2023/08/04 07:44:54;;;;;;;5.47;3.50;;;;;;;15.77;100.00;98209.19;4103847;28;20215;-47
2023/08/04 07:46:56;;;;;;;4.47;3.40;;;;;;;15.73;100.00;98210.88;4118753;28;20214;-47
2023/08/04 07:48:58;;;;;;;5.25;3.05;;;;;;;15.78;100.00;98213.59;4110271;28;20266;-46
2023/08/04 07:51:00;;;;;;;4.82;4.00;;;;;;;15.87;100.00;98214.59;4122252;28;20234;-49
2023/08/04 07:53:02;;;;;;;3.42;3.13;;;;;;;15.91;100.00;98221.19;4123492;28;20209;-47
2023/08/04 07:55:08;;;;;;;3.72;3.33;;;;;;;15.90;100.00;98214.81;4135362;28;20225;-46
2023/08/04 07:57:10;;;;;;;4.32;3.35;;;;;;;15.94;100.00;98213.13;4135512;28;20745;-47
2023/08/04 07:59:11;;;;;;;3.42;3.13;;;;;;;15.94;100.00;98224.19;4119182;28;20628;-47
2023/08/04 08:01:13;;;;;;;3.40;3.08;;;;;;;15.97;100.00;98223.59;4123018;28;20219;-48
2023/08/04 08:03:15;;;;;;;3.92;3.63;;;;;;;15.93;100.00;98221.69;4126663;28;20827;-46
2023/08/04 08:05:17;;;;;;;4.13;3.58;;;;;;;15.87;100.00;98222.88;4126881;28;20206;-47
2023/08/04 08:07:19;;;;;;;4.28;3.55;;;;;;;15.82;100.00;98220.97;4118118;28;20218;-47
2023/08/04 08:09:36;;;;;;;4.30;3.60;;;;;;;15.87;100.00;98226.47;4125363;28;20260;-47
2023/08/04 08:11:38;;;;;;;5.07;4.32;;;;;;;15.90;100.00;98228.63;4123622;28;20252;-48
2023/08/04 08:13:40;;;;;;;4.55;3.80;;;;;;;15.89;100.00;98221.47;4127067;28;20213;-48
2023/08/04 08:15:41;;;;;;;5.03;4.47;;;;;;;15.90;100.00;98231.38;4119782;28;20241;-48
2023/08/04 08:17:43;;;;;;;4.63;3.65;;;;;;;15.81;100.00;98235.06;4118967;28;20210;-46
2023/08/04 08:19:45;;;;;;;4.55;3.97;;;;;;;15.77;100.00;98234.81;4121829;28;20800;-48
2023/08/04 08:21:47;;;;;;;4.38;4.03;;;;;;;15.78;100.00;98236.50;4127606;28;20280;-48
2023/08/04 08:23:49;;;;;;;5.75;4.28;;;;;;;15.77;100.00;98240.34;4102610;28;20262;-48
2023/08/04 08:25:51;;;;;;;4.85;4.10;;;;;;;15.81;100.00;98240.59;4120102;28;20274;-48
2023/08/04 08:27:53;;;;;;;5.32;4.82;;;;;;;15.84;100.00;98242.78;4120383;28;20265;-46
2023/08/04 08:29:55;;;;;;;4.90;3.50;;;;;;;15.82;100.00;98248.56;4103869;28;20293;-48
2023/08/04 08:31:57;;;;;;;4.38;4.00;;;;;;;15.77;100.00;98240.34;4121781;28;20245;-47
2023/08/04 08:33:58;;;;;;;5.45;4.70;;;;;;;15.82;100.00;98248.56;4117806;28;20547;-47
2023/08/04 08:36:00;;;;;;;5.30;4.80;;;;;;;15.83;100.00;98250.22;4120165;28;20262;-47
2023/08/04 08:38:02;;;;;;;6.03;4.90;;;;;;;15.84;100.00;98251.84;4119845;28;20217;-47
2023/08/04 08:40:04;;;;;;;5.18;4.25;;;;;;;15.84;100.00;98251.84;4126813;28;20214;-46
2023/08/04 08:42:06;;;;;;;5.25;4.63;;;;;;;15.90;100.00;98250.69;4124784;28;20231;-46
2023/08/04 08:44:09;;;;;;;5.97;3.40;;;;;;;15.88;100.00;98252.94;4116593;28;20245;-46
2023/08/04 08:46:11;;;;;;;5.85;4.25;;;;;;;15.90;100.00;98255.41;4117625;28;20647;-48
2023/08/04 08:48:14;;;;;;;5.28;4.38;;;;;;;15.92;100.00;98256.78;4104409;28;20302;-48
2023/08/04 08:50:17;;;;;;;5.13;4.20;;;;;;;15.95;100.00;98258.94;4124626;28;20209;-49
2023/08/04 08:52:19;;;;;;;6.82;4.18;;;;;;;16.06;100.00;98259.66;4105274;28;20230;-48
2023/08/04 08:54:21;;;;;;;4.28;3.85;;;;;;;15.88;100.00;98263.97;4101951;28;20724;-47
2023/08/04 08:56:25;;;;;;;4.32;3.92;;;;;;;15.68;100.00;98263.31;4119173;28;20211;-46
2023/08/04 08:58:32;;;;;;;5.68;4.93;;;;;;;15.82;100.00;98264.34;4126582;28;20214;-47
2023/08/04 09:00:35;;;;;;;4.90;3.95;;;;;;;15.95;100.00;98264.47;4119742;28;20248;-47
2023/08/04 09:02:37;;;;;;;4.70;3.58;;;;;;;15.84;100.00;98273.94;4122837;28;20325;-49
2023/08/04 09:04:39;;;;;;;5.53;3.83;;;;;;;15.81;100.00;98279.22;4126713;28;20210;-48
2023/08/04 09:06:41;;;;;;;4.90;4.20;;;;;;;15.79;100.00;98281.44;4127212;28;20264;-49
2023/08/04 09:08:43;;;;;;;4.47;3.95;;;;;;;15.84;100.00;98276.69;4120235;28;20289;-47
2023/08/04 09:10:47;;;;;;;5.13;4.63;;;;;;;15.68;100.00;98272.44;4118124;28;20214;-48
2023/08/04 09:12:53;;;;;;;5.22;4.72;;;;;;;15.70;100.00;98275.72;4124237;28;20220;-48
2023/08/04 09:14:56;;;;;;;4.35;3.70;;;;;;;15.78;100.00;98279.81;4119643;28;20242;-47
2023/08/04 09:16:57;;;;;;;4.75;4.35;;;;;;;15.74;100.00;98284.25;4125881;28;20272;-46
2023/08/04 09:19:04;;;;;;;4.82;4.13;;;;;;;15.86;100.00;98276.41;4126260;28;20210;-47
2023/08/04 09:21:13;;;;;;;5.55;4.95;;;;;;;16.00;100.00;98277.38;4125478;28;20285;-47
2023/08/04 09:23:15;;;;;;;4.32;4.03;;;;;;;16.17;100.00;98278.59;4116884;28;20273;-46
2023/08/04 09:25:17;;;;;;;5.40;4.65;;;;;;;16.27;100.00;98281.25;4118494;28;20242;-47
2023/08/04 09:27:49;;;;;;;4.43;4.03;;;;;;;16.08;100.00;98285.88;4123350;28;20229;-48